createdAt,value
2019-03-13T00:03:49.448Z,16.34
2019-03-13T00:08:58.369Z,10.84
2019-03-13T00:14:07.191Z,17.06
2019-03-13T00:19:16.200Z,13.08
2019-03-13T00:24:25.063Z,14.85
2019-03-13T00:29:33.967Z,11.30
2019-03-13T00:34:42.863Z,24.86
2019-03-13T00:39:51.751Z,14.96
2019-03-13T00:45:00.655Z,16.47
2019-03-13T00:50:09.534Z,15.74
2019-03-13T00:55:18.419Z,14.99
2019-03-13T01:00:27.293Z,12.78
2019-03-13T01:05:36.145Z,15.74
2019-03-13T01:10:45.055Z,16.08
2019-03-13T01:15:53.995Z,17.27
2019-03-13T01:21:02.901Z,15.54
2019-03-13T01:26:11.921Z,18.90
2019-03-13T01:31:20.815Z,19.76
2019-03-13T01:36:29.716Z,16.47
2019-03-13T01:41:38.652Z,17.18
2019-03-13T01:46:47.501Z,14.92
2019-03-13T01:51:56.392Z,15.28
2019-03-13T01:57:05.355Z,21.75
2019-03-13T02:02:14.196Z,25.57
2019-03-13T02:07:23.055Z,34.76
2019-03-13T02:12:31.907Z,39.64
2019-03-13T02:17:40.869Z,28.02
2019-03-13T02:22:49.725Z,23.30
2019-03-13T02:27:58.626Z,27.42
2019-03-13T02:33:07.492Z,18.10
2019-03-13T02:38:16.408Z,18.15
2019-03-13T02:43:25.291Z,16.31
2019-03-13T02:48:34.177Z,14.71
2019-03-13T02:53:43.225Z,16.70
2019-03-13T02:58:52.107Z,17.72
2019-03-13T03:04:00.973Z,17.35
2019-03-13T03:09:09.864Z,16.97
2019-03-13T03:14:18.734Z,16.50
2019-03-13T03:19:27.584Z,22.28
2019-03-13T03:24:36.559Z,29.19
2019-03-13T03:29:45.449Z,19.29
2019-03-13T03:34:54.328Z,19.85
2019-03-13T03:40:03.217Z,18.02
2019-03-13T03:45:12.143Z,20.26
2019-03-13T03:50:21.003Z,25.05
2019-03-13T03:55:30.049Z,23.41
2019-03-13T04:00:38.953Z,20.58
2019-03-13T04:05:47.825Z,22.42
2019-03-13T04:10:56.676Z,22.13
2019-03-13T04:16:05.631Z,20.16
2019-03-13T04:21:14.482Z,18.31
2019-03-13T04:26:23.400Z,20.94
2019-03-13T04:31:32.233Z,21.96
2019-03-13T04:36:41.288Z,19.99
2019-03-13T04:41:50.171Z,21.56
2019-03-13T04:46:59.084Z,20.75
2019-03-13T04:52:07.929Z,25.40
2019-03-13T04:57:16.885Z,21.66
2019-03-13T05:02:25.793Z,24.86
2019-03-13T05:07:34.731Z,19.05
2019-03-13T05:12:43.674Z,23.87
2019-03-13T05:17:52.552Z,21.96
2019-03-13T05:23:01.419Z,22.85
2019-03-13T05:28:10.324Z,19.15
2019-03-13T05:33:19.201Z,28.95
2019-03-13T05:38:28.044Z,20.86
2019-03-13T05:43:36.949Z,28.59
2019-03-13T05:48:45.796Z,39.13
2019-03-13T05:53:54.692Z,34.29
2019-03-13T05:59:03.566Z,39.18
2019-03-13T06:04:12.530Z,40.94
2019-03-13T06:09:21.455Z,45.99
2019-03-13T06:14:30.411Z,56.04
2019-03-13T06:19:39.310Z,66.72
2019-03-13T06:24:48.251Z,56.49
2019-03-13T06:29:57.117Z,50.40
2019-03-13T06:35:06.141Z,44.41
2019-03-13T06:40:15.032Z,42.90
2019-03-13T06:45:23.943Z,38.21
2019-03-13T06:50:32.796Z,31.42
2019-03-13T06:55:41.722Z,35.75
2019-03-13T07:00:50.572Z,30.24
2019-03-13T07:05:59.443Z,28.25
2019-03-13T07:11:08.318Z,32.19
2019-03-13T07:16:17.243Z,27.98
2019-03-13T07:21:26.132Z,37.21
2019-03-13T07:26:34.976Z,25.93
2019-03-13T07:31:43.929Z,24.72
2019-03-13T07:36:52.795Z,25.25
2019-03-13T07:42:01.703Z,21.84
2019-03-13T07:47:10.602Z,22.93
2019-03-13T07:52:19.522Z,21.50
2019-03-13T07:57:28.401Z,21.61
2019-03-13T08:02:37.272Z,21.24
2019-03-13T08:07:46.120Z,22.43
2019-03-13T08:12:54.998Z,22.02
2019-03-13T08:18:03.878Z,18.67
2019-03-13T08:23:12.835Z,21.28
2019-03-13T08:28:21.744Z,20.61
2019-03-13T08:33:30.859Z,19.90
2019-03-13T08:38:39.751Z,20.73
2019-03-13T08:43:48.664Z,28.19
2019-03-13T08:48:57.540Z,28.97
2019-03-13T08:54:06.571Z,60.43
2019-03-13T08:59:15.432Z,48.42
2019-03-13T09:04:24.315Z,52.32
2019-03-13T09:09:33.164Z,36.37
2019-03-13T09:14:42.059Z,30.48
2019-03-13T09:19:50.954Z,33.68
2019-03-13T09:25:11.160Z,27.94
2019-03-13T09:30:08.248Z,26.48
2019-03-13T09:35:17.147Z,25.56
2019-03-13T09:40:26.056Z,28.41
2019-03-13T09:45:34.966Z,27.14
2019-03-13T09:50:43.834Z,30.36
2019-03-13T09:55:52.689Z,29.87
2019-03-13T10:01:01.576Z,26.24
2019-03-13T10:06:10.519Z,25.93
2019-03-13T10:11:19.429Z,22.94
2019-03-13T10:16:28.379Z,26.91
2019-03-13T10:21:37.241Z,23.39
2019-03-13T10:26:46.115Z,20.12
2019-03-13T10:31:55.008Z,22.59
2019-03-13T10:37:03.882Z,21.18
2019-03-13T10:42:12.798Z,21.14
2019-03-13T10:47:21.672Z,20.77
2019-03-13T10:52:30.547Z,18.91
2019-03-13T10:57:39.536Z,16.81
2019-03-13T11:02:48.457Z,17.00
2019-03-13T11:07:57.383Z,26.84
2019-03-13T11:13:06.243Z,23.39
2019-03-13T11:18:17.980Z,21.95
2019-03-13T11:23:23.621Z,22.91
2019-03-13T11:28:32.539Z,21.62
2019-03-13T11:33:41.416Z,22.56
2019-03-13T11:38:50.298Z,20.20
2019-03-13T11:43:59.172Z,19.35
2019-03-13T11:49:08.065Z,19.34
2019-03-13T11:54:16.968Z,21.21
2019-03-13T11:59:25.830Z,23.16
2019-03-13T12:04:34.776Z,17.81
2019-03-13T12:09:43.643Z,18.68
2019-03-13T12:14:52.525Z,18.93
2019-03-13T12:20:01.380Z,18.84
2019-03-13T12:25:10.870Z,21.79
2019-03-13T12:30:19.766Z,22.45
2019-03-13T12:35:28.758Z,21.58
2019-03-13T12:40:37.529Z,21.57
2019-03-13T12:45:46.464Z,21.28
2019-03-13T12:50:55.352Z,26.76
2019-03-13T12:56:04.235Z,23.12
2019-03-13T13:01:13.117Z,23.19
2019-03-13T13:06:22.055Z,22.56
2019-03-13T13:11:30.923Z,22.52
2019-03-13T13:16:39.784Z,22.35
2019-03-13T13:21:48.671Z,20.04
2019-03-13T13:26:57.636Z,22.78
2019-03-13T13:32:06.500Z,23.16
2019-03-13T13:37:15.374Z,21.53
2019-03-13T13:42:24.284Z,19.53
2019-03-13T13:47:33.173Z,19.50
2019-03-13T13:52:42.029Z,18.72
2019-03-13T13:57:50.911Z,20.33
2019-03-13T14:02:59.791Z,22.17
2019-03-13T14:08:08.655Z,20.13
2019-03-13T14:13:17.517Z,20.70
2019-03-13T14:18:26.353Z,18.08
2019-03-13T14:23:35.279Z,19.43
2019-03-13T14:28:44.180Z,17.19
2019-03-13T14:33:53.099Z,17.90
2019-03-13T14:39:01.980Z,17.33
2019-03-13T14:44:10.903Z,15.45
2019-03-13T14:49:19.760Z,18.91
2019-03-13T14:54:28.683Z,21.17
2019-03-13T14:59:37.560Z,23.26
2019-03-13T15:04:46.439Z,26.42
2019-03-13T15:09:55.288Z,20.82
2019-03-13T15:15:04.155Z,17.71
2019-03-13T15:20:13.013Z,24.21
2019-03-13T15:25:21.960Z,30.42
2019-03-13T15:30:30.832Z,26.47
2019-03-13T15:35:39.753Z,30.26
2019-03-13T15:40:48.638Z,34.44
2019-03-13T15:45:57.570Z,31.77
2019-03-13T15:51:06.441Z,30.46
2019-03-13T15:56:15.340Z,39.67
2019-03-13T16:01:24.275Z,32.15
2019-03-13T16:06:33.139Z,28.73
2019-03-13T16:11:42.079Z,33.42
2019-03-13T16:16:50.935Z,31.24
2019-03-13T16:21:59.874Z,32.75
2019-03-13T16:27:08.759Z,40.82
2019-03-13T16:32:17.653Z,46.78
2019-03-13T16:37:26.531Z,44.60
2019-03-13T16:42:35.547Z,44.61
2019-03-13T16:47:57.811Z,45.47
2019-03-13T16:52:58.864Z,37.10
2019-03-13T16:58:09.947Z,36.06
2019-03-13T17:02:48.855Z,29.21
2019-03-13T17:07:57.719Z,27.90
2019-03-13T17:13:06.609Z,28.50
2019-03-13T17:18:15.456Z,30.78
2019-03-13T17:23:24.447Z,33.47
2019-03-13T17:28:33.301Z,39.00
2019-03-13T17:33:42.261Z,33.46
2019-03-13T17:38:51.078Z,32.96
2019-03-13T17:43:59.941Z,28.73
2019-03-13T17:49:08.807Z,28.38
2019-03-13T17:54:17.819Z,21.62
2019-03-13T17:59:26.703Z,26.27
2019-03-13T18:04:35.568Z,22.41
2019-03-13T18:09:44.475Z,22.21
2019-03-13T18:14:53.375Z,22.80
2019-03-13T18:20:02.335Z,21.03
2019-03-13T18:25:11.176Z,20.08
2019-03-13T18:30:20.090Z,21.19
2019-03-13T18:35:28.973Z,22.31
2019-03-13T18:40:37.905Z,23.07
2019-03-13T18:45:46.770Z,18.92
2019-03-13T18:50:55.638Z,20.88
2019-03-13T18:56:04.510Z,23.34
2019-03-13T19:01:13.468Z,22.76
2019-03-13T19:06:22.340Z,23.21
2019-03-13T19:11:31.261Z,31.35
2019-03-13T19:16:40.113Z,34.49
2019-03-13T19:21:49.019Z,28.11
2019-03-13T19:26:57.860Z,30.12
2019-03-13T19:32:06.735Z,45.66
2019-03-13T19:37:15.635Z,32.56
2019-03-13T19:42:24.531Z,29.86
2019-03-13T19:47:33.413Z,28.29
2019-03-13T19:52:42.301Z,28.02
2019-03-13T19:57:51.216Z,29.90
2019-03-13T20:03:00.679Z,27.52
2019-03-13T20:08:08.535Z,29.32
2019-03-13T20:13:17.479Z,25.25
2019-03-13T20:18:26.357Z,24.39
2019-03-13T20:23:35.238Z,23.85
2019-03-13T20:28:46.218Z,22.62
2019-03-13T20:33:52.544Z,25.25
2019-03-13T20:39:01.449Z,23.76
2019-03-13T20:44:10.340Z,22.19
2019-03-13T20:49:19.229Z,19.39
2019-03-13T20:54:28.092Z,24.32
2019-03-13T20:59:37.015Z,20.09
2019-03-13T21:04:45.919Z,25.00
2019-03-13T21:09:55.583Z,30.28
2019-03-13T21:15:03.248Z,34.00
2019-03-13T21:20:12.152Z,52.41
2019-03-13T21:25:21.040Z,33.40
2019-03-13T21:30:30.064Z,31.87
2019-03-13T21:35:38.939Z,29.68
2019-03-13T21:40:47.863Z,26.22
2019-03-13T21:45:56.738Z,23.96
2019-03-13T21:51:05.610Z,24.79
2019-03-13T21:56:14.491Z,28.27
2019-03-13T22:01:23.396Z,25.70
2019-03-13T22:06:32.299Z,27.45
2019-03-13T22:11:41.152Z,28.01
2019-03-13T22:16:50.019Z,25.41
2019-03-13T22:21:59.003Z,27.84
2019-03-13T22:27:07.910Z,28.42
2019-03-13T22:32:16.815Z,27.81
2019-03-13T22:37:25.720Z,24.58
2019-03-13T22:42:34.587Z,30.94
2019-03-13T22:47:43.787Z,26.99
2019-03-13T22:52:51.841Z,25.89
2019-03-13T22:58:01.644Z,30.68
2019-03-13T23:03:09.230Z,29.12
2019-03-13T23:08:18.167Z,52.06
2019-03-13T23:13:27.052Z,38.97
2019-03-13T23:18:35.943Z,33.64
2019-03-13T23:23:44.847Z,32.75
2019-03-13T23:28:53.709Z,32.39
2019-03-13T23:34:02.607Z,29.07
2019-03-13T23:39:11.471Z,29.66
2019-03-13T23:44:20.325Z,25.24
2019-03-13T23:49:29.168Z,23.14
2019-03-13T23:54:38.049Z,25.64
2019-03-13T23:59:46.905Z,24.03
